Time;durP1;ratioP1;P1;durP2;ratioP2;P2;SDS_P1;SDS_P2;PMS_P1;PMS_P2;Temp;Humidity;BMP_temperature;BMP_pressure;BME280_temperature;BME280_humidity;BME280_pressure;Samples;Min_cycle;Max_cycle;Signal;HPM_P1;HPM_P2
2021/01/30 00:00:26;;;;;;;6.30;5.70;;;;;;;;;;1036386;28;20097;-85
2021/01/30 00:00:57;;;;;;;6.47;5.75;;;;;;;;;;1031920;28;20065;-84
2021/01/30 00:01:28;;;;;;;6.10;5.50;;;;;;;;;;1032219;28;20129;-85
2021/01/30 00:02:00;;;;;;;8.07;6.45;;;;;;;;;;1028312;28;20046;-85
2021/01/30 00:02:31;;;;;;;5.88;5.32;;;;;;;;;;1032230;28;20050;-85
2021/01/30 00:03:03;;;;;;;7.07;6.35;;;;;;;;;;1035770;28;20042;-85
2021/01/30 00:03:34;;;;;;;8.35;5.90;;;;;;;;;;1036214;28;20057;-85
2021/01/30 00:04:05;;;;;;;8.77;6.78;;;;;;;;;;1032220;28;20050;-84
2021/01/30 00:04:36;;;;;;;7.50;5.75;;;;;;;;;;1028069;28;20082;-85
2021/01/30 00:05:11;;;;;;;6.90;6.22;;;;;;;;;;1024091;29;20173;-84
2021/01/30 00:05:43;;;;;;;7.68;6.93;;;;;;;;;;1025289;28;20066;-85
2021/01/30 00:06:15;;;;;;;8.00;6.82;;;;;;;;;;1029946;28;20047;-84
2021/01/30 00:06:49;;;;;;;6.93;6.22;;;;;;;;;;1032213;28;20399;-85
2021/01/30 00:07:20;;;;;;;7.72;6.93;;;;;;;;;;1032196;28;20596;-85
2021/01/30 00:07:52;;;;;;;6.00;5.40;;;;;;;;;;1037796;28;20053;-84
2021/01/30 00:08:23;;;;;;;7.55;6.78;;;;;;;;;;1032112;28;20416;-84
2021/01/30 00:08:54;;;;;;;8.40;7.60;;;;;;;;;;1028048;28;20047;-84
2021/01/30 00:09:26;;;;;;;8.20;6.97;;;;;;;;;;1035929;28;20045;-85
2021/01/30 00:09:57;;;;;;;8.13;7.05;;;;;;;;;;1036166;28;20065;-84
2021/01/30 00:10:28;;;;;;;8.00;6.90;;;;;;;;;;1032313;28;20062;-85
2021/01/30 00:11:00;;;;;;;9.82;7.75;;;;;;;;;;1031988;28;20061;-85
2021/01/30 00:11:31;;;;;;;8.88;7.80;;;;;;;;;;1032196;28;20046;-84
2021/01/30 00:12:03;;;;;;;8.15;7.35;;;;;;;;;;1028102;28;20105;-85
2021/01/30 00:12:36;;;;;;;8.57;7.15;;;;;;;;;;1020587;29;20044;-85
2021/01/30 00:13:08;;;;;;;8.57;6.95;;;;;;;;;;1028027;28;20050;-84
2021/01/30 00:13:41;;;;;;;7.53;6.68;;;;;;;;;;1028044;28;20050;-85
2021/01/30 00:14:12;;;;;;;9.15;7.45;;;;;;;;;;1032461;28;20556;-84
2021/01/30 00:14:43;;;;;;;7.38;6.65;;;;;;;;;;1040305;28;20474;-85
2021/01/30 00:15:19;;;;;;;8.27;7.43;;;;;;;;;;1031934;28;20058;-84
2021/01/30 00:15:50;;;;;;;8.13;7.28;;;;;;;;;;1040262;28;20087;-85
2021/01/30 00:16:21;;;;;;;9.95;7.43;;;;;;;;;;1032018;28;20411;-85
2021/01/30 00:16:52;;;;;;;9.70;8.05;;;;;;;;;;1036151;28;20053;-85
2021/01/30 00:17:23;;;;;;;8.70;7.82;;;;;;;;;;1040146;28;20057;-83
2021/01/30 00:17:56;;;;;;;9.38;8.35;;;;;;;;;;1044384;28;20045;-85
2021/01/30 00:18:27;;;;;;;8.50;7.60;;;;;;;;;;1036510;28;20050;-85
2021/01/30 00:18:58;;;;;;;11.13;8.43;;;;;;;;;;1040160;28;20042;-85
2021/01/30 00:19:29;;;;;;;9.90;8.93;;;;;;;;;;1035967;28;20046;-82
2021/01/30 00:20:00;;;;;;;9.82;8.82;;;;;;;;;;1036143;28;20062;-84
2021/01/30 00:20:34;;;;;;;8.52;7.68;;;;;;;;;;1036081;28;20198;-85
2021/01/30 00:21:05;;;;;;;9.82;8.82;;;;;;;;;;1044641;28;20053;-84
2021/01/30 00:21:37;;;;;;;9.30;7.20;;;;;;;;;;1040117;28;20492;-86
2021/01/30 00:22:12;;;;;;;12.10;9.38;;;;;;;;;;1031944;28;20511;-85
2021/01/30 00:22:43;;;;;;;11.30;7.82;;;;;;;;;;1033090;28;20137;-84
2021/01/30 00:23:14;;;;;;;11.18;7.80;;;;;;;;;;1037100;28;20136;-84
2021/01/30 00:23:46;;;;;;;10.05;7.45;;;;;;;;;;1036062;28;20049;-84
2021/01/30 00:24:17;;;;;;;11.27;8.63;;;;;;;;;;1031915;28;20057;-84
2021/01/30 00:24:49;;;;;;;8.88;7.70;;;;;;;;;;1036288;28;20597;-85
2021/01/30 00:25:26;;;;;;;9.75;8.43;;;;;;;;;;1031874;28;20080;-84
2021/01/30 00:25:57;;;;;;;11.70;9.60;;;;;;;;;;1036132;28;20081;-85
2021/01/30 00:26:28;;;;;;;15.90;8.68;;;;;;;;;;1034070;28;20093;-85
2021/01/30 00:27:01;;;;;;;10.77;8.48;;;;;;;;;;1032048;28;20053;-84
2021/01/30 00:27:32;;;;;;;9.13;8.07;;;;;;;;;;1035895;28;20507;-85
2021/01/30 00:28:05;;;;;;;9.00;8.18;;;;;;;;;;1035926;28;20510;-85
2021/01/30 00:28:36;;;;;;;9.40;8.50;;;;;;;;;;1036148;28;20057;-83
2021/01/30 00:29:07;;;;;;;12.90;9.30;;;;;;;;;;1040187;28;20049;-84
2021/01/30 00:29:39;;;;;;;9.93;8.93;;;;;;;;;;1032078;28;20135;-84
2021/01/30 00:30:15;;;;;;;10.50;9.00;;;;;;;;;;1036014;28;20499;-85
2021/01/30 00:30:48;;;;;;;10.63;8.10;;;;;;;;;;1027140;28;20185;-83
2021/01/30 00:31:20;;;;;;;9.98;8.98;;;;;;;;;;1028075;28;20407;-84
2021/01/30 00:31:51;;;;;;;9.00;7.93;;;;;;;;;;1028130;28;20098;-84
2021/01/30 00:32:22;;;;;;;8.88;7.97;;;;;;;;;;1035174;28;20052;-84
2021/01/30 00:32:54;;;;;;;9.05;8.15;;;;;;;;;;1032108;28;20112;-84
2021/01/30 00:33:25;;;;;;;9.55;8.65;;;;;;;;;;1036092;28;20045;-84
2021/01/30 00:34:00;;;;;;;9.38;8.13;;;;;;;;;;1032200;28;20162;-85
2021/01/30 00:34:32;;;;;;;13.07;8.57;;;;;;;;;;1036002;28;20068;-84
2021/01/30 00:35:03;;;;;;;9.73;8.63;;;;;;;;;;1032062;28;20107;-83
2021/01/30 00:35:35;;;;;;;11.68;8.82;;;;;;;;;;1028962;28;20061;-84
2021/01/30 00:36:07;;;;;;;5.32;4.78;;;;;;;;;;1024766;28;20056;-84
2021/01/30 00:36:38;;;;;;;9.70;8.70;;;;;;;;;;1028174;28;20133;-84
2021/01/30 00:37:12;;;;;;;8.90;8.00;;;;;;;;;;1032792;28;20113;-84
2021/01/30 00:37:43;;;;;;;8.90;8.00;;;;;;;;;;1036082;28;20049;-84
2021/01/30 00:38:14;;;;;;;9.63;8.68;;;;;;;;;;1032055;28;20497;-84
2021/01/30 00:38:47;;;;;;;9.38;8.45;;;;;;;;;;1035794;28;20112;-84
2021/01/30 00:39:19;;;;;;;8.57;7.60;;;;;;;;;;1036275;28;20049;-84
2021/01/30 00:39:51;;;;;;;9.98;8.05;;;;;;;;;;1032010;28;20050;-83
2021/01/30 00:40:23;;;;;;;9.23;8.32;;;;;;;;;;1036078;28;20058;-84
2021/01/30 00:40:54;;;;;;;10.55;8.52;;;;;;;;;;1035838;28;20045;-84
2021/01/30 00:41:25;;;;;;;9.02;7.82;;;;;;;;;;1032032;28;20147;-83
2021/01/30 00:41:56;;;;;;;9.60;8.48;;;;;;;;;;1032123;28;20050;-84
2021/01/30 00:42:27;;;;;;;9.00;8.18;;;;;;;;;;1042646;28;20053;-85
2021/01/30 00:42:58;;;;;;;10.68;8.77;;;;;;;;;;1040040;28;20128;-83
2021/01/30 00:43:29;;;;;;;11.13;10.02;;;;;;;;;;1036098;28;20050;-84
2021/01/30 00:44:01;;;;;;;8.90;8.00;;;;;;;;;;1027884;28;20129;-84
2021/01/30 00:44:32;;;;;;;10.45;8.65;;;;;;;;;;1036142;28;20096;-84
2021/01/30 00:45:06;;;;;;;10.02;9.02;;;;;;;;;;1031912;28;20053;-84
2021/01/30 00:45:37;;;;;;;9.90;8.48;;;;;;;;;;1031846;28;20057;-84
2021/01/30 00:46:09;;;;;;;9.52;8.52;;;;;;;;;;1033040;28;20057;-82
2021/01/30 00:46:40;;;;;;;12.77;10.23;;;;;;;;;;1031999;28;20065;-84
2021/01/30 00:47:12;;;;;;;10.82;9.10;;;;;;;;;;1024902;28;20512;-83
2021/01/30 00:47:44;;;;;;;12.30;10.35;;;;;;;;;;1028446;28;20141;-84
2021/01/30 00:48:15;;;;;;;11.65;10.45;;;;;;;;;;1028172;28;20129;-84
2021/01/30 00:48:46;;;;;;;11.00;10.00;;;;;;;;;;1031991;28;20073;-84
2021/01/30 00:49:18;;;;;;;12.20;10.90;;;;;;;;;;1031921;28;20050;-84
2021/01/30 00:49:49;;;;;;;11.48;10.25;;;;;;;;;;1035573;28;20056;-84
2021/01/30 00:50:20;;;;;;;13.00;11.65;;;;;;;;;;1031811;28;20173;-85
2021/01/30 00:50:51;;;;;;;11.35;9.82;;;;;;;;;;1024264;28;20055;-84
2021/01/30 00:51:23;;;;;;;13.50;11.18;;;;;;;;;;1031920;28;20637;-84
2021/01/30 00:51:55;;;;;;;11.63;10.30;;;;;;;;;;1027921;28;20060;-83
2021/01/30 00:52:27;;;;;;;8.88;7.43;;;;;;;;;;1035889;28;20045;-85
2021/01/30 00:52:58;;;;;;;13.63;12.20;;;;;;;;;;1036005;28;20127;-82
2021/01/30 00:53:28;;;;;;;12.68;11.13;;;;;;;;;;1035949;28;20097;-83
2021/01/30 00:53:59;;;;;;;12.68;11.38;;;;;;;;;;1031964;28;20561;-84
2021/01/30 00:54:31;;;;;;;14.07;12.07;;;;;;;;;;1028282;28;20046;-83
2021/01/30 00:55:02;;;;;;;13.43;12.02;;;;;;;;;;1028236;28;20130;-84
2021/01/30 00:55:33;;;;;;;13.95;12.48;;;;;;;;;;1028198;28;20157;-84
2021/01/30 00:56:04;;;;;;;13.77;11.80;;;;;;;;;;1031802;28;20054;-84
2021/01/30 00:56:35;;;;;;;15.93;11.52;;;;;;;;;;1023942;29;20051;-84
2021/01/30 00:57:07;;;;;;;13.70;11.43;;;;;;;;;;1024471;28;20055;-84
2021/01/30 00:57:38;;;;;;;14.88;12.20;;;;;;;;;;1032192;28;20473;-83
2021/01/30 00:58:09;;;;;;;15.32;12.77;;;;;;;;;;1036450;28;20050;-83
2021/01/30 00:58:44;;;;;;;13.52;11.95;;;;;;;;;;1039998;28;20053;-84
2021/01/30 00:59:15;;;;;;;14.82;12.93;;;;;;;;;;1036012;28;20100;-84
2021/01/30 00:59:46;;;;;;;14.52;11.50;;;;;;;;;;1034365;28;20407;-84
2021/01/30 01:00:24;;;;;;;12.77;10.88;;;;;;;;;;1036070;28;20046;-84
2021/01/30 01:00:55;;;;;;;14.95;13.40;;;;;;;;;;1033196;28;20426;-83
2021/01/30 01:01:26;;;;;;;13.98;11.93;;;;;;;;;;1031606;28;20419;-83
2021/01/30 01:01:57;;;;;;;14.65;12.65;;;;;;;;;;1033357;28;20050;-84
2021/01/30 01:02:28;;;;;;;14.43;12.90;;;;;;;;;;1032502;28;20053;-85
2021/01/30 01:02:59;;;;;;;15.93;13.23;;;;;;;;;;1040392;28;20049;-84
2021/01/30 01:03:31;;;;;;;13.57;12.20;;;;;;;;;;1035984;28;20050;-84
2021/01/30 01:04:06;;;;;;;15.02;13.52;;;;;;;;;;1031790;28;20054;-84
2021/01/30 01:04:37;;;;;;;15.07;13.48;;;;;;;;;;1028741;28;20046;-83
2021/01/30 01:05:09;;;;;;;14.75;13.25;;;;;;;;;;1024891;28;20051;-84
2021/01/30 01:05:40;;;;;;;15.55;13.50;;;;;;;;;;1025898;28;20083;-84
2021/01/30 01:06:11;;;;;;;15.25;13.45;;;;;;;;;;1028149;28;20054;-84
2021/01/30 01:06:42;;;;;;;16.00;14.40;;;;;;;;;;1036425;28;20187;-84
2021/01/30 01:07:13;;;;;;;14.48;12.73;;;;;;;;;;1036137;28;20050;-84
2021/01/30 01:07:45;;;;;;;15.23;13.63;;;;;;;;;;1035737;28;20081;-85
2021/01/30 01:08:17;;;;;;;16.15;13.02;;;;;;;;;;1036094;28;20519;-84
2021/01/30 01:08:48;;;;;;;15.82;14.23;;;;;;;;;;1036115;28;20119;-84
2021/01/30 01:09:20;;;;;;;15.05;13.15;;;;;;;;;;1032536;28;20170;-83
2021/01/30 01:09:51;;;;;;;15.05;13.45;;;;;;;;;;1036501;28;20042;-83
2021/01/30 01:10:23;;;;;;;16.17;14.45;;;;;;;;;;1035931;28;20050;-84
2021/01/30 01:10:55;;;;;;;15.38;13.23;;;;;;;;;;1031812;28;20046;-84
2021/01/30 01:11:29;;;;;;;15.98;13.40;;;;;;;;;;1032034;28;20128;-83
2021/01/30 01:12:00;;;;;;;17.95;14.48;;;;;;;;;;1027733;28;20051;-83
2021/01/30 01:12:31;;;;;;;16.75;14.90;;;;;;;;;;1032206;28;20053;-83
2021/01/30 01:13:03;;;;;;;17.95;14.07;;;;;;;;;;1032554;28;20161;-84
2021/01/30 01:13:34;;;;;;;15.40;13.02;;;;;;;;;;1035061;28;20521;-83
2021/01/30 01:14:07;;;;;;;17.05;14.77;;;;;;;;;;1035959;28;20072;-84
2021/01/30 01:14:38;;;;;;;16.83;14.70;;;;;;;;;;1035358;28;20046;-84
2021/01/30 01:15:10;;;;;;;18.80;14.57;;;;;;;;;;1033842;28;20134;-84
2021/01/30 01:15:41;;;;;;;15.27;13.35;;;;;;;;;;1036142;28;20081;-84
2021/01/30 01:16:12;;;;;;;16.67;15.00;;;;;;;;;;1027604;28;20089;-83
2021/01/30 01:16:43;;;;;;;16.15;14.45;;;;;;;;;;1032426;28;20065;-83
2021/01/30 01:17:14;;;;;;;15.27;13.77;;;;;;;;;;1031877;28;20050;-84
2021/01/30 01:17:49;;;;;;;14.63;13.13;;;;;;;;;;1026918;28;20051;-84
2021/01/30 01:18:21;;;;;;;15.27;13.68;;;;;;;;;;1023662;28;20047;-84
2021/01/30 01:18:52;;;;;;;15.82;13.75;;;;;;;;;;1024688;28;20055;-84
2021/01/30 01:19:23;;;;;;;17.02;14.38;;;;;;;;;;1025902;28;20138;-83
2021/01/30 01:19:54;;;;;;;15.30;13.80;;;;;;;;;;1032304;28;20058;-84
2021/01/30 01:20:25;;;;;;;16.85;14.57;;;;;;;;;;1035787;28;20052;-84
2021/01/30 01:20:58;;;;;;;14.32;11.93;;;;;;;;;;1035869;28;20062;-82
2021/01/30 01:21:30;;;;;;;16.67;15.07;;;;;;;;;;1028026;28;20133;-83
2021/01/30 01:22:01;;;;;;;16.10;14.40;;;;;;;;;;1027854;28;20046;-83
2021/01/30 01:22:32;;;;;;;16.58;14.65;;;;;;;;;;1028440;28;20189;-83
2021/01/30 01:23:04;;;;;;;14.63;13.18;;;;;;;;;;1029015;28;20047;-83
2021/01/30 01:23:35;;;;;;;17.02;15.23;;;;;;;;;;1027840;28;20550;-85
2021/01/30 01:24:08;;;;;;;17.55;14.95;;;;;;;;;;1027711;28;20503;-84
2021/01/30 01:24:40;;;;;;;15.27;13.68;;;;;;;;;;1032638;28;20057;-84
2021/01/30 01:25:12;;;;;;;18.15;14.77;;;;;;;;;;1032636;28;20050;-84
2021/01/30 01:25:43;;;;;;;16.00;13.50;;;;;;;;;;1035938;28;20050;-84
2021/01/30 01:26:16;;;;;;;16.10;14.35;;;;;;;;;;1027995;28;20519;-84
2021/01/30 01:26:49;;;;;;;15.55;13.85;;;;;;;;;;1031803;28;20062;-84
2021/01/30 01:27:20;;;;;;;17.77;14.27;;;;;;;;;;1029953;28;20073;-83
2021/01/30 01:27:51;;;;;;;14.63;13.13;;;;;;;;;;1032153;28;20050;-84
2021/01/30 01:28:22;;;;;;;14.63;12.93;;;;;;;;;;1027879;28;20046;-84
2021/01/30 01:28:54;;;;;;;15.15;13.55;;;;;;;;;;1033354;28;20173;-84
2021/01/30 01:29:25;;;;;;;14.35;12.80;;;;;;;;;;1035792;28;20056;-84
2021/01/30 01:29:56;;;;;;;16.10;14.50;;;;;;;;;;1036019;28;20482;-85
2021/01/30 01:30:27;;;;;;;15.57;13.68;;;;;;;;;;1027651;28;20046;-84
2021/01/30 01:30:58;;;;;;;16.35;14.65;;;;;;;;;;1027846;28;20058;-85
2021/01/30 01:31:30;;;;;;;15.73;14.05;;;;;;;;;;1028450;28;20078;-84
2021/01/30 01:32:01;;;;;;;14.52;13.10;;;;;;;;;;1028233;28;20107;-84
2021/01/30 01:32:32;;;;;;;14.50;13.00;;;;;;;;;;1027883;28;20166;-84
2021/01/30 01:33:04;;;;;;;17.10;12.30;;;;;;;;;;1028081;28;20126;-83
2021/01/30 01:33:35;;;;;;;15.10;13.35;;;;;;;;;;1031880;28;20085;-85
2021/01/30 01:34:06;;;;;;;14.45;12.60;;;;;;;;;;1027449;28;20047;-85
2021/01/30 01:34:38;;;;;;;15.77;13.60;;;;;;;;;;1031957;28;20497;-83
2021/01/30 01:35:14;;;;;;;14.95;13.38;;;;;;;;;;1027774;28;20066;-84
2021/01/30 01:35:45;;;;;;;17.80;12.93;;;;;;;;;;1028234;28;20042;-83
2021/01/30 01:36:18;;;;;;;14.10;12.70;;;;;;;;;;1027890;28;20489;-83
2021/01/30 01:36:54;;;;;;;15.55;13.00;;;;;;;;;;1029304;28;20051;-84
2021/01/30 01:37:25;;;;;;;14.75;12.65;;;;;;;;;;1034596;28;20429;-83
2021/01/30 01:37:57;;;;;;;13.98;12.52;;;;;;;;;;1031899;28;20589;-84
2021/01/30 01:38:29;;;;;;;14.25;12.30;;;;;;;;;;1032353;28;20184;-84
2021/01/30 01:39:00;;;;;;;16.50;14.07;;;;;;;;;;1037880;28;20053;-84
2021/01/30 01:39:33;;;;;;;14.65;13.00;;;;;;;;;;1039768;28;20128;-84
2021/01/30 01:40:05;;;;;;;12.95;11.45;;;;;;;;;;1031942;28;20566;-84
2021/01/30 01:40:39;;;;;;;19.33;13.93;;;;;;;;;;1033183;28;20104;-82
2021/01/30 01:41:11;;;;;;;13.40;12.00;;;;;;;;;;1036573;28;20117;-83
2021/01/30 01:41:42;;;;;;;16.02;13.32;;;;;;;;;;1035736;28;20049;-84
2021/01/30 01:42:22;;;;;;;14.65;12.55;;;;;;;;;;1032230;28;20042;-84
2021/01/30 01:42:58;;;;;;;15.32;13.80;;;;;;;;;;1036149;28;20141;-84
2021/01/30 01:43:29;;;;;;;14.50;12.55;;;;;;;;;;1031103;28;20527;-84
2021/01/30 01:44:00;;;;;;;15.18;12.32;;;;;;;;;;1031814;28;20046;-83
2021/01/30 01:44:32;;;;;;;14.73;12.15;;;;;;;;;;1027882;28;20089;-84
2021/01/30 01:45:04;;;;;;;13.90;12.50;;;;;;;;;;1025196;28;20090;-84
2021/01/30 01:45:36;;;;;;;15.40;13.30;;;;;;;;;;1031628;28;20129;-84
2021/01/30 01:46:07;;;;;;;20.05;13.25;;;;;;;;;;1033647;28;20049;-82
2021/01/30 01:46:39;;;;;;;16.00;13.48;;;;;;;;;;1040585;28;20054;-84
2021/01/30 01:47:20;;;;;;;15.10;13.20;;;;;;;;;;1039896;28;20049;-84
2021/01/30 01:47:52;;;;;;;13.50;11.35;;;;;;;;;;1032272;28;20069;-85
2021/01/30 01:48:28;;;;;;;14.82;12.43;;;;;;;;;;1029954;28;20050;-82
2021/01/30 01:49:02;;;;;;;15.63;11.85;;;;;;;;;;1031702;28;20057;-83
2021/01/30 01:49:35;;;;;;;16.85;13.02;;;;;;;;;;1035921;28;20204;-84
2021/01/30 01:50:29;;;;;;;14.55;12.80;;;;;;;;;;1028828;28;20086;-83
2021/01/30 01:51:04;;;;;;;14.40;12.32;;;;;;;;;;1038729;28;20042;-83
2021/01/30 01:51:42;;;;;;;16.35;12.20;;;;;;;;;;1035695;28;20053;-83
2021/01/30 01:52:27;;;;;;;15.00;13.40;;;;;;;;;;1039912;28;20077;-84
2021/01/30 01:53:06;;;;;;;15.30;12.52;;;;;;;;;;1027904;28;20476;-83
2021/01/30 01:53:41;;;;;;;15.75;14.10;;;;;;;;;;1032066;28;20055;-84
2021/01/30 01:54:16;;;;;;;14.60;13.07;;;;;;;;;;1032824;28;20133;-84
2021/01/30 01:54:50;;;;;;;14.43;12.93;;;;;;;;;;1038287;28;20614;-84
2021/01/30 01:55:21;;;;;;;14.90;13.35;;;;;;;;;;1035929;28;20411;-85
2021/01/30 01:56:01;;;;;;;14.90;13.02;;;;;;;;;;1033002;28;20177;-84
2021/01/30 01:56:34;;;;;;;16.40;13.60;;;;;;;;;;1031954;28;20061;-84
2021/01/30 01:57:11;;;;;;;15.32;13.73;;;;;;;;;;1027915;28;20131;-84
2021/01/30 01:57:47;;;;;;;14.82;13.20;;;;;;;;;;1023650;28;20501;-84
2021/01/30 01:58:19;;;;;;;18.95;12.50;;;;;;;;;;1031796;28;20193;-85
2021/01/30 01:58:53;;;;;;;14.63;13.07;;;;;;;;;;1036219;28;20100;-84
2021/01/30 01:59:25;;;;;;;14.07;12.60;;;;;;;;;;1027861;28;20547;-83
2021/01/30 01:59:56;;;;;;;13.73;12.27;;;;;;;;;;1031679;28;20115;-84
2021/01/30 02:00:30;;;;;;;13.77;12.38;;;;;;;;;;1035843;28;20192;-84
2021/01/30 02:01:03;;;;;;;15.82;13.98;;;;;;;;;;1031877;28;20483;-84
2021/01/30 02:01:36;;;;;;;14.95;13.18;;;;;;;;;;1027781;28;20134;-84
2021/01/30 02:02:07;;;;;;;15.73;13.57;;;;;;;;;;1031864;28;20046;-84
2021/01/30 02:02:40;;;;;;;13.40;11.98;;;;;;;;;;1032596;28;20054;-83
2021/01/30 02:03:11;;;;;;;15.50;13.50;;;;;;;;;;1035849;28;20550;-84
2021/01/30 02:03:46;;;;;;;14.32;12.93;;;;;;;;;;1040007;28;20049;-85
2021/01/30 02:04:20;;;;;;;15.88;13.02;;;;;;;;;;1035767;28;20060;-84
2021/01/30 02:05:02;;;;;;;17.08;14.07;;;;;;;;;;1035831;28;20050;-84
2021/01/30 02:05:36;;;;;;;15.68;14.07;;;;;;;;;;1027819;28;20137;-85
2021/01/30 02:06:08;;;;;;;16.88;13.98;;;;;;;;;;1031722;28;20046;-83
2021/01/30 02:06:42;;;;;;;15.82;14.13;;;;;;;;;;1031699;28;20188;-85
2021/01/30 02:07:13;;;;;;;16.05;13.30;;;;;;;;;;1036063;28;20049;-85
2021/01/30 02:07:48;;;;;;;14.98;13.38;;;;;;;;;;1031838;28;20054;-84
2021/01/30 02:08:20;;;;;;;15.05;13.38;;;;;;;;;;1035388;28;20183;-85
2021/01/30 02:08:51;;;;;;;15.48;13.57;;;;;;;;;;1027657;28;20073;-84
2021/01/30 02:09:24;;;;;;;14.77;12.63;;;;;;;;;;1031842;28;20058;-84
2021/01/30 02:09:58;;;;;;;15.55;13.68;;;;;;;;;;1027695;28;20050;-84
2021/01/30 02:10:40;;;;;;;16.52;14.18;;;;;;;;;;1028916;28;20047;-84
2021/01/30 02:11:12;;;;;;;13.85;12.45;;;;;;;;;;1029995;28;20051;-84
2021/01/30 02:11:51;;;;;;;15.13;13.23;;;;;;;;;;1030025;28;20051;-84
2021/01/30 02:12:25;;;;;;;14.88;12.55;;;;;;;;;;1027926;28;20134;-84
2021/01/30 02:13:03;;;;;;;16.27;13.52;;;;;;;;;;1029768;28;20051;-85
2021/01/30 02:13:36;;;;;;;19.33;13.85;;;;;;;;;;1034510;28;20609;-84
2021/01/30 02:14:09;;;;;;;15.07;13.38;;;;;;;;;;1037929;28;20058;-83
2021/01/30 02:14:46;;;;;;;14.30;12.32;;;;;;;;;;1035904;28;20072;-84
2021/01/30 02:15:19;;;;;;;19.10;13.05;;;;;;;;;;1035590;28;20054;-83
2021/01/30 02:16:05;;;;;;;14.35;12.85;;;;;;;;;;1031797;28;20050;-84
2021/01/30 02:16:44;;;;;;;14.20;12.80;;;;;;;;;;1032305;28;20053;-84
2021/01/30 02:17:39;;;;;;;13.13;11.73;;;;;;;;;;1032536;28;20491;-84
2021/01/30 02:18:44;;;;;;;13.75;12.02;;;;;;;;;;1037121;28;20466;-84
2021/01/30 02:19:18;;;;;;;11.98;10.75;;;;;;;;;;1023236;29;20677;-84
2021/01/30 02:20:01;;;;;;;12.20;11.00;;;;;;;;;;1028560;28;20134;-83
2021/01/30 02:21:17;;;;;;;12.25;10.13;;;;;;;;;;1040360;28;20055;-83
2021/01/30 02:22:25;;;;;;;12.90;10.98;;;;;;;;;;1041165;28;20052;-84
2021/01/30 02:23:34;;;;;;;11.40;9.00;;;;;;;;;;1036642;28;20091;-83
2021/01/30 02:24:17;;;;;;;10.85;8.93;;;;;;;;;;1043025;28;20128;-84
2021/01/30 02:25:39;;;;;;;12.38;10.13;;;;;;;;;;1044268;28;20479;-84
2021/01/30 02:26:33;;;;;;;14.77;9.90;;;;;;;;;;1028227;28;20047;-84
2021/01/30 02:27:35;;;;;;;9.25;8.27;;;;;;;;;;1034082;28;20046;-84
2021/01/30 02:28:25;;;;;;;7.45;6.72;;;;;;;;;;1044009;28;20049;-83
2021/01/30 02:29:21;;;;;;;9.85;8.38;;;;;;;;;;1040540;28;20041;-85
2021/01/30 02:30:07;;;;;;;8.27;7.20;;;;;;;;;;1028160;28;20531;-85
2021/01/30 02:30:58;;;;;;;8.70;7.22;;;;;;;;;;1028975;28;20449;-85
2021/01/30 02:32:00;;;;;;;9.20;7.63;;;;;;;;;;1041535;28;20052;-83
2021/01/30 02:33:13;;;;;;;8.73;7.72;;;;;;;;;;1040655;28;20493;-85
2021/01/30 02:33:59;;;;;;;9.07;7.70;;;;;;;;;;1036263;28;20545;-85
2021/01/30 02:34:48;;;;;;;8.23;7.43;;;;;;;;;;1036451;28;20045;-84
2021/01/30 02:35:37;;;;;;;9.35;6.93;;;;;;;;;;1034985;28;20050;-84
2021/01/30 02:36:23;;;;;;;8.90;8.00;;;;;;;;;;1036589;28;20132;-84
2021/01/30 02:37:01;;;;;;;8.35;7.47;;;;;;;;;;1033105;28;20165;-84
2021/01/30 02:37:45;;;;;;;9.05;8.15;;;;;;;;;;1028318;28;20047;-83
2021/01/30 02:38:22;;;;;;;8.90;8.00;;;;;;;;;;1031986;28;20058;-83
2021/01/30 02:38:58;;;;;;;9.68;8.52;;;;;;;;;;1029505;28;20258;-84
2021/01/30 02:39:34;;;;;;;8.85;7.93;;;;;;;;;;1031915;28;20054;-83
2021/01/30 02:40:09;;;;;;;8.65;7.75;;;;;;;;;;1031005;28;20103;-84
2021/01/30 02:40:42;;;;;;;12.45;9.50;;;;;;;;;;1026359;28;20063;-84
2021/01/30 02:41:17;;;;;;;8.75;7.93;;;;;;;;;;1028256;28;20066;-84
2021/01/30 02:42:11;;;;;;;9.75;8.85;;;;;;;;;;1033224;28;20054;-84
2021/01/30 02:42:50;;;;;;;10.68;8.80;;;;;;;;;;1040571;28;20057;-85
2021/01/30 02:43:27;;;;;;;9.45;8.52;;;;;;;;;;1040618;28;20049;-84
2021/01/30 02:44:00;;;;;;;9.77;8.63;;;;;;;;;;1032317;28;20076;-85
2021/01/30 02:44:36;;;;;;;9.77;8.82;;;;;;;;;;1032288;28;20053;-83
2021/01/30 02:45:28;;;;;;;8.48;7.68;;;;;;;;;;1030537;28;20046;-85
2021/01/30 02:46:05;;;;;;;9.00;8.10;;;;;;;;;;1036318;28;20064;-84
2021/01/30 02:46:44;;;;;;;9.90;8.90;;;;;;;;;;1040530;28;20214;-85
2021/01/30 02:47:17;;;;;;;9.18;8.15;;;;;;;;;;1036760;28;20046;-83
2021/01/30 02:48:03;;;;;;;10.25;9.23;;;;;;;;;;1032779;28;20052;-83
2021/01/30 02:48:38;;;;;;;12.02;8.43;;;;;;;;;;1029129;28;20131;-84
2021/01/30 02:49:16;;;;;;;9.65;8.68;;;;;;;;;;1025874;28;20130;-83
2021/01/30 02:49:54;;;;;;;9.82;8.82;;;;;;;;;;1028195;28;20141;-83
2021/01/30 02:50:32;;;;;;;8.93;8.02;;;;;;;;;;1031233;28;20054;-83
2021/01/30 02:51:08;;;;;;;9.50;8.60;;;;;;;;;;1035513;28;20045;-84
2021/01/30 02:51:44;;;;;;;11.35;8.88;;;;;;;;;;1032443;28;20504;-85
2021/01/30 02:52:18;;;;;;;10.30;9.27;;;;;;;;;;1028426;28;20047;-85
2021/01/30 02:52:51;;;;;;;8.75;7.95;;;;;;;;;;1030430;28;20491;-85
2021/01/30 02:53:25;;;;;;;10.05;9.13;;;;;;;;;;1028431;28;20141;-85
2021/01/30 02:53:57;;;;;;;9.50;8.60;;;;;;;;;;1027045;28;20566;-84
2021/01/30 02:54:31;;;;;;;10.20;9.25;;;;;;;;;;1029560;28;20046;-85
2021/01/30 02:55:05;;;;;;;11.80;9.77;;;;;;;;;;1029636;28;20130;-85
2021/01/30 02:55:37;;;;;;;9.68;8.68;;;;;;;;;;1032348;28;20521;-85
2021/01/30 02:56:08;;;;;;;10.02;9.02;;;;;;;;;;1039097;28;20139;-85
2021/01/30 02:56:39;;;;;;;9.82;8.88;;;;;;;;;;1036472;28;20144;-85
2021/01/30 02:57:13;;;;;;;9.88;8.88;;;;;;;;;;1036507;28;20056;-85
2021/01/30 02:57:44;;;;;;;10.00;9.00;;;;;;;;;;1040437;28;20107;-84
2021/01/30 02:58:17;;;;;;;9.73;8.70;;;;;;;;;;1032431;28;20201;-85
2021/01/30 02:59:06;;;;;;;9.77;8.85;;;;;;;;;;1028419;28;20055;-85
2021/01/30 02:59:44;;;;;;;10.45;8.52;;;;;;;;;;1032316;28;20119;-84
2021/01/30 03:00:19;;;;;;;9.52;8.60;;;;;;;;;;1032558;28;20081;-84
2021/01/30 03:00:51;;;;;;;9.65;8.73;;;;;;;;;;1032472;28;20042;-85
2021/01/30 03:01:23;;;;;;;10.95;9.48;;;;;;;;;;1028210;28;20062;-84
2021/01/30 03:01:55;;;;;;;11.05;8.70;;;;;;;;;;1033689;28;20460;-84
2021/01/30 03:02:28;;;;;;;9.52;8.60;;;;;;;;;;1037271;28;20050;-85
2021/01/30 03:02:59;;;;;;;11.00;9.80;;;;;;;;;;1036486;28;20049;-85
2021/01/30 03:03:31;;;;;;;9.95;8.93;;;;;;;;;;1032285;28;20084;-84
2021/01/30 03:04:07;;;;;;;9.95;8.93;;;;;;;;;;1032425;28;20050;-83
2021/01/30 03:04:38;;;;;;;9.57;8.68;;;;;;;;;;1032231;28;20089;-84
2021/01/30 03:05:11;;;;;;;10.52;9.38;;;;;;;;;;1032411;28;20061;-83
2021/01/30 03:05:43;;;;;;;11.30;9.70;;;;;;;;;;1036651;28;20046;-84
2021/01/30 03:06:24;;;;;;;9.65;8.68;;;;;;;;;;1038022;28;20045;-84
2021/01/30 03:07:01;;;;;;;10.10;9.10;;;;;;;;;;1036565;28;20060;-85
2021/01/30 03:07:51;;;;;;;10.05;9.07;;;;;;;;;;1038983;28;20136;-85
2021/01/30 03:08:29;;;;;;;9.82;8.45;;;;;;;;;;1041031;28;20053;-84
2021/01/30 03:09:37;;;;;;;8.75;7.75;;;;;;;;;;1040592;28;20186;-84
2021/01/30 03:10:16;;;;;;;7.50;6.80;;;;;;;;;;1042122;28;20131;-84
2021/01/30 03:10:50;;;;;;;8.40;7.57;;;;;;;;;;1038745;28;20057;-82
2021/01/30 03:11:26;;;;;;;8.68;7.78;;;;;;;;;;1040628;28;20132;-83
2021/01/30 03:12:15;;;;;;;7.80;6.88;;;;;;;;;;1038796;28;20077;-84
2021/01/30 03:13:30;;;;;;;8.65;7.78;;;;;;;;;;1040535;28;20049;-82
2021/01/30 03:14:15;;;;;;;6.50;5.85;;;;;;;;;;1031971;28;20089;-85
2021/01/30 03:14:54;;;;;;;6.70;6.00;;;;;;;;;;1036068;28;20050;-84
2021/01/30 03:15:50;;;;;;;7.93;6.68;;;;;;;;;;1032261;28;20042;-84
2021/01/30 03:16:24;;;;;;;7.55;6.80;;;;;;;;;;1032733;28;20129;-85
2021/01/30 03:16:58;;;;;;;8.18;7.38;;;;;;;;;;1026605;28;20086;-84
2021/01/30 03:17:31;;;;;;;8.48;7.55;;;;;;;;;;1032311;28;20093;-85
2021/01/30 03:18:04;;;;;;;9.52;7.68;;;;;;;;;;1028358;28;20053;-85
2021/01/30 03:18:39;;;;;;;8.52;7.72;;;;;;;;;;1034810;28;20439;-84
2021/01/30 03:19:29;;;;;;;8.32;7.50;;;;;;;;;;1037729;28;20056;-85
2021/01/30 03:20:01;;;;;;;7.20;6.50;;;;;;;;;;1036891;28;20181;-84
2021/01/30 03:20:33;;;;;;;6.50;5.90;;;;;;;;;;1043858;28;20315;-85
2021/01/30 03:21:10;;;;;;;7.95;7.15;;;;;;;;;;1040575;28;20085;-85
2021/01/30 03:21:42;;;;;;;7.20;6.50;;;;;;;;;;1036533;28;20058;-84
2021/01/30 03:22:14;;;;;;;7.32;6.53;;;;;;;;;;1032090;28;20506;-84
2021/01/30 03:22:49;;;;;;;7.07;6.30;;;;;;;;;;1028232;28;20059;-84
2021/01/30 03:23:20;;;;;;;7.13;6.47;;;;;;;;;;1032232;28;20168;-83
2021/01/30 03:23:52;;;;;;;7.93;7.22;;;;;;;;;;1028530;28;20093;-84
2021/01/30 03:24:26;;;;;;;7.15;6.45;;;;;;;;;;1028115;28;20110;-85
2021/01/30 03:24:57;;;;;;;7.68;6.97;;;;;;;;;;1028517;28;20047;-85
2021/01/30 03:25:30;;;;;;;7.68;6.97;;;;;;;;;;1032283;28;20047;-84
2021/01/30 03:26:04;;;;;;;7.50;6.68;;;;;;;;;;1032383;28;20050;-85
2021/01/30 03:26:42;;;;;;;7.28;6.55;;;;;;;;;;1028369;28;20047;-85